Warning: fopen(/var/www/metroair/shared/private/wxdata/metar/AVWX/metar_KGSP): failed to open stream: Permission denied in /var/www/metroair/shared/private/library/orig_library/lib_airport.php on line 346

Warning: fwrite() expects parameter 1 to be resource, boolean given in /var/www/metroair/shared/private/library/orig_library/lib_airport.php on line 347

Warning: fclose() expects parameter 1 to be resource, boolean given in /var/www/metroair/shared/private/library/orig_library/lib_airport.php on line 348

Warning: fopen(/var/www/metroair/shared/private/wxdata/TAF/AVWX/taf_KGSP): failed to open stream: Permission denied in /var/www/metroair/shared/private/library/orig_library/lib_airport.php on line 533

Warning: fwrite() expects parameter 1 to be resource, boolean given in /var/www/metroair/shared/private/library/orig_library/lib_airport.php on line 534

Warning: fclose() expects parameter 1 to be resource, boolean given in /var/www/metroair/shared/private/library/orig_library/lib_airport.php on line 535

MET5207 - Boston to Greenville - Spartanburg

Embraer ERJ-170LR
N924AG
2 hrs 00 mins
691 nm
Scheduled - Daily

Bid/PiRep Status

Bid was submitted on Dec 31 2016.

PiRep # 74548: Approved by Sean Doyle on January 1st, 2017 15:52 UTC

Departure

Departing from
Boston (BOS)
Departure gate
Scheduled Departure
GMT 1330
Local 0830
METAR KBOS 161154Z 00000KT 10SM CLR M04/M09 A3044 RMK AO2 SLP305 T10441094 11028 21050 55001 $
TAF KBOS 161120Z 1612/1718 23007KT P6SM SKC FM171100 29004KT P6SM SCT250 FM171400 35005KT P6SM SCT200 FM171700 06005KT P6SM BKN150
  • No charts available

Arrival

Arriving at
Greenville - Spartanburg (GSP)
Arrival gate
Unassigned
Scheduled Arrival
GMT 1530
Local 1030
METAR KGSP 161153Z 07006KT 8SM OVC007 12/10 A3032 RMK AO2 SLP262 T01170100 10139 20117 53012
TAF KGSP 161139Z 1612/1712 03005KT P6SM OVC008 TEMPO 1613/1616 4SM BR OVC004 FM161700 06004KT P6SM VCSH OVC006 FM162300 07005KT P6SM OVC003 FM170200 07004KT 4SM BR OVC003

Route Map

Planning Resources

HAFNR GVE LYH
TERPZ3 LDN GVE J75 GSO J14 SPA
TERPZ5 FLASK J48 SPA92 J53 SPA ICASY OXABY
PATSS SWALO J75 SBJ V419 BIGGY J75 GVE V476 LYH WHTTL
BOS PUT HFD RBV OOD OTT GVE LYH SPA KGSP
Route:
OFP Layout:
Units:
Detailed Navlog:
ETOPS Planning:
Plan Stepclimbs:
Runway Analysis:
Include NOTAMS:
FIR NOTAMS:
Flight Maps:

Return Flights

MET5208
Embraer ERJ-170LR
1600 GMT
MET5210
Embraer ERJ-170LR
0100 GMT

Popularity

Hub Current Bids PiReps this month Total PiReps
KMCI 0 0 2
KLAX 0 0 0
KBOS 0 2 3